createdAt,value
2019-04-22T00:00:36.153Z,1015.62
2019-04-22T00:01:34.611Z,1015.59
2019-04-22T00:02:40.024Z,1015.59
2019-04-22T00:03:37.745Z,1015.60
2019-04-22T00:04:49.823Z,1015.61
2019-04-22T00:05:56.332Z,1015.57
2019-04-22T00:06:57.543Z,1015.58
2019-04-22T00:07:56.560Z,1015.59
2019-04-22T00:08:55.552Z,1015.58
2019-04-22T00:10:03.342Z,1015.61
2019-04-22T00:11:02.971Z,1015.57
2019-04-22T00:11:59.012Z,1015.60
2019-04-22T00:13:01.472Z,1015.54
2019-04-22T00:13:57.695Z,1015.56
2019-04-22T00:14:55.474Z,1015.57
2019-04-22T00:15:54.128Z,1015.57
2019-04-22T00:16:58.509Z,1015.53
2019-04-22T00:18:03.325Z,1015.51
2019-04-22T00:19:08.459Z,1015.50
2019-04-22T00:20:58.221Z,1015.50
2019-04-22T00:22:03.305Z,1015.51
2019-04-22T00:22:56.623Z,1015.48
2019-04-22T00:23:59.040Z,1015.46
2019-04-22T00:25:03.319Z,1015.49
2019-04-22T00:26:06.966Z,1015.44
2019-04-22T00:26:58.814Z,1015.43
2019-04-22T00:28:02.730Z,1015.47
2019-04-22T00:28:58.218Z,1015.44
2019-04-22T00:31:00.201Z,1015.39
2019-04-22T00:32:58.931Z,1015.37
2019-04-22T00:33:57.778Z,1015.42
2019-04-22T00:34:53.507Z,1015.37
2019-04-22T00:35:54.477Z,1015.33
2019-04-22T00:36:58.648Z,1015.37
2019-04-22T00:38:08.925Z,1015.39
2019-04-22T00:38:58.773Z,1015.35
2019-04-22T00:40:15.960Z,1015.41
2019-04-22T00:40:59.133Z,1015.36
2019-04-22T00:41:56.985Z,1015.31
2019-04-22T00:43:03.128Z,1015.31
2019-04-22T00:44:06.542Z,1015.31
2019-04-22T00:45:04.941Z,1015.30
2019-04-22T00:45:57.845Z,1015.34
2019-04-22T00:46:59.593Z,1015.31
2019-04-22T00:48:05.274Z,1015.36
2019-04-22T00:49:45.371Z,1015.33
2019-04-22T00:51:08.206Z,1015.39
2019-04-22T00:52:03.292Z,1015.33
2019-04-22T00:53:04.439Z,1015.38
2019-04-22T00:53:56.129Z,1015.36
2019-04-22T00:55:00.564Z,1015.37
2019-04-22T00:56:00.543Z,1015.34
2019-04-22T00:56:54.352Z,1015.33
2019-04-22T00:58:02.860Z,1015.31
2019-04-22T00:58:50.232Z,1015.31
2019-04-22T00:59:58.335Z,1015.32
2019-04-22T01:01:03.359Z,1015.32
2019-04-22T01:02:05.674Z,1015.31
2019-04-22T01:03:03.117Z,1015.28
2019-04-22T01:04:04.284Z,1015.33
2019-04-22T01:05:03.878Z,1015.33
2019-04-22T01:05:57.116Z,1015.31
2019-04-22T01:06:57.509Z,1015.30
2019-04-22T01:07:56.362Z,1015.28
2019-04-22T01:09:01.516Z,1015.24
2019-04-22T01:10:01.372Z,1015.24
2019-04-22T01:11:06.221Z,1015.19
2019-04-22T01:11:52.377Z,1015.16
2019-04-22T01:12:59.723Z,1015.19
2019-04-22T01:13:55.237Z,1015.17
2019-04-22T01:14:55.324Z,1015.16
2019-04-22T01:15:58.570Z,1015.18
2019-04-22T01:17:01.547Z,1015.15
2019-04-22T01:17:57.915Z,1015.16
2019-04-22T01:18:55.609Z,1015.18
2019-04-22T01:19:58.535Z,1015.18
2019-04-22T01:21:20.902Z,1015.16
2019-04-22T01:22:13.352Z,1015.13
2019-04-22T01:22:53.227Z,1015.17
2019-04-22T01:23:56.589Z,1015.15
2019-04-22T01:24:52.799Z,1015.13
2019-04-22T01:25:50.112Z,1015.13
2019-04-22T01:26:50.831Z,1015.10
2019-04-22T01:27:51.668Z,1015.07
2019-04-22T01:28:45.890Z,1015.12
2019-04-22T01:29:46.560Z,1015.09
2019-04-22T01:30:40.620Z,1015.06
2019-04-22T01:31:36.153Z,1015.04
2019-04-22T01:32:38.520Z,1015.03
2019-04-22T01:33:39.014Z,1015.06
2019-04-22T01:34:48.813Z,1015.06
2019-04-22T01:35:49.340Z,1015.06
2019-04-22T01:36:55.510Z,1015.08
2019-04-22T01:37:52.529Z,1015.07
2019-04-22T01:38:58.426Z,1015.07
2019-04-22T01:39:56.991Z,1015.06
2019-04-22T01:41:02.697Z,1015.05
2019-04-22T01:42:03.906Z,1015.03
2019-04-22T01:43:01.853Z,1015.03
2019-04-22T01:44:09.775Z,1015.03
2019-04-22T01:45:00.767Z,1015.04
2019-04-22T01:46:02.689Z,1015.03
2019-04-22T01:47:00.336Z,1015.01
2019-04-22T01:48:00.861Z,1014.99
2019-04-22T01:49:02.773Z,1014.94
2019-04-22T01:50:03.358Z,1014.97
2019-04-22T01:50:56.191Z,1014.99
2019-04-22T01:52:14.290Z,1015.02
2019-04-22T01:53:00.917Z,1014.98
2019-04-22T01:54:04.763Z,1014.97
2019-04-22T01:55:02.183Z,1015.00
2019-04-22T01:56:14.021Z,1014.96
2019-04-22T01:56:59.434Z,1014.99
2019-04-22T01:57:53.587Z,1014.95
2019-04-22T01:58:49.358Z,1014.97
2019-04-22T01:59:51.551Z,1015.02
2019-04-22T02:01:13.571Z,1014.94
2019-04-22T02:01:55.782Z,1014.97
2019-04-22T02:02:59.466Z,1014.95
2019-04-22T02:04:01.263Z,1014.98
2019-04-22T02:05:01.212Z,1014.89
2019-04-22T02:06:02.349Z,1014.99
2019-04-22T02:06:57.215Z,1014.90
2019-04-22T02:08:02.536Z,1014.90
2019-04-22T02:09:04.161Z,1014.85
2019-04-22T02:09:55.073Z,1014.88
2019-04-22T02:11:17.375Z,1014.87
2019-04-22T02:12:00.225Z,1014.88
2019-04-22T02:13:03.066Z,1014.87
2019-04-22T02:13:59.181Z,1014.88
2019-04-22T02:14:59.427Z,1014.87
2019-04-22T02:16:00.206Z,1014.83
2019-04-22T02:17:06.471Z,1014.84
2019-04-22T02:18:01.357Z,1014.82
2019-04-22T02:19:00.902Z,1014.82
2019-04-22T02:19:57.499Z,1014.86
2019-04-22T02:20:59.033Z,1014.84
2019-04-22T02:21:54.144Z,1014.89
2019-04-22T02:23:15.864Z,1014.89
2019-04-22T02:23:59.557Z,1014.91
2019-04-22T02:24:58.865Z,1014.90
2019-04-22T02:26:01.139Z,1014.85
2019-04-22T02:26:54.233Z,1014.89
2019-04-22T02:27:56.558Z,1014.84
2019-04-22T02:29:01.903Z,1014.90
2019-04-22T02:29:56.054Z,1014.93
2019-04-22T02:35:23.339Z,1014.88
2019-04-22T02:36:56.248Z,1014.86
2019-04-22T02:38:07.766Z,1014.84
2019-04-22T02:40:03.656Z,1014.82
2019-04-22T02:41:16.063Z,1014.85
2019-04-22T02:42:06.654Z,1014.86
2019-04-22T02:43:01.415Z,1014.90
2019-04-22T02:46:22.420Z,1014.88
2019-04-22T02:47:13.440Z,1014.91
2019-04-22T02:48:10.815Z,1014.90
2019-04-22T02:49:22.229Z,1014.88
2019-04-22T02:50:02.020Z,1014.89
2019-04-22T02:51:12.418Z,1014.85
2019-04-22T02:52:01.360Z,1014.85
2019-04-22T02:53:10.461Z,1014.85
2019-04-22T02:55:01.336Z,1014.76
2019-04-22T02:56:12.147Z,1014.81
2019-04-22T02:57:03.983Z,1014.76
2019-04-22T02:57:57.885Z,1014.80
2019-04-22T02:59:09.950Z,1014.71
2019-04-22T03:00:07.467Z,1014.72
2019-04-22T03:01:05.999Z,1014.75
2019-04-22T03:01:54.279Z,1014.68
2019-04-22T03:04:06.807Z,1014.71
2019-04-22T03:05:08.992Z,1014.76
2019-04-22T03:06:16.534Z,1014.66
2019-04-22T03:06:46.069Z,1014.70
2019-04-22T03:08:10.825Z,1014.72
2019-04-22T03:09:05.465Z,1014.71
2019-04-22T03:11:04.112Z,1014.71
2019-04-22T03:12:14.370Z,1014.70
2019-04-22T03:13:06.673Z,1014.69
2019-04-22T03:14:54.888Z,1014.63
2019-04-22T03:16:07.680Z,1014.70
2019-04-22T03:16:57.382Z,1014.69
2019-04-22T03:18:03.193Z,1014.74
2019-04-22T03:22:00.694Z,1014.76
2019-04-22T03:23:05.801Z,1014.74
2019-04-22T03:24:20.082Z,1014.71
2019-04-22T03:25:35.904Z,1014.75
2019-04-22T03:27:00.853Z,1014.74
2019-04-22T03:27:54.200Z,1014.74
2019-04-22T03:28:54.964Z,1014.74
2019-04-22T03:30:36.693Z,1014.74
2019-04-22T03:32:36.103Z,1014.76
2019-04-22T03:33:12.195Z,1014.75
2019-04-22T03:36:10.691Z,1014.72
2019-04-22T03:40:22.351Z,1014.75
2019-04-22T03:41:03.599Z,1014.69
2019-04-22T03:42:06.958Z,1014.68
2019-04-22T03:45:10.367Z,1014.63
2019-04-22T03:45:51.701Z,1014.60
2019-04-22T03:47:11.352Z,1014.58
2019-04-22T03:49:18.941Z,1014.58
2019-04-22T03:50:15.758Z,1014.58
2019-04-22T03:51:09.641Z,1014.61
2019-04-22T03:53:14.916Z,1014.59
2019-04-22T03:54:11.174Z,1014.55
2019-04-22T03:55:05.177Z,1014.55
2019-04-22T03:56:15.992Z,1014.52
2019-04-22T03:57:26.529Z,1014.58
2019-04-22T03:57:56.960Z,1014.54
2019-04-22T03:59:11.523Z,1014.53
2019-04-22T04:00:14.965Z,1014.47
2019-04-22T04:02:08.239Z,1014.46
2019-04-22T04:03:00.931Z,1014.45
2019-04-22T04:04:13.043Z,1014.48
2019-04-22T04:04:58.702Z,1014.41
2019-04-22T04:07:14.604Z,1014.45
2019-04-22T04:08:03.539Z,1014.43
2019-04-22T04:09:14.209Z,1014.43
2019-04-22T04:10:10.252Z,1014.45
2019-04-22T04:10:57.519Z,1014.43
2019-04-22T04:12:04.119Z,1014.47
2019-04-22T04:15:14.264Z,1014.51
2019-04-22T04:15:55.614Z,1014.48
2019-04-22T04:17:06.208Z,1014.51
2019-04-22T04:17:54.899Z,1014.48
2019-04-22T04:19:08.405Z,1014.43
2019-04-22T04:21:14.593Z,1014.49
2019-04-22T04:23:08.328Z,1014.42
2019-04-22T04:24:11.792Z,1014.46
2019-04-22T04:25:19.882Z,1014.45
2019-04-22T04:26:00.958Z,1014.44
2019-04-22T04:27:20.758Z,1014.44
2019-04-22T04:29:22.136Z,1014.51
2019-04-22T04:30:59.821Z,1014.49
2019-04-22T04:31:02.658Z,1014.44
2019-04-22T04:32:18.835Z,1014.41
2019-04-22T04:34:03.328Z,1014.47
2019-04-22T04:36:02.372Z,1014.47
2019-04-22T04:37:07.363Z,1014.50
2019-04-22T04:38:13.055Z,1014.50
2019-04-22T04:39:00.698Z,1014.52
2019-04-22T04:41:12.698Z,1014.55
2019-04-22T04:46:11.704Z,1014.64
2019-04-22T04:47:17.655Z,1014.64
2019-04-22T04:48:00.825Z,1014.62
2019-04-22T04:49:09.683Z,1014.59
2019-04-22T04:54:13.214Z,1014.69
2019-04-22T04:55:10.049Z,1014.68
2019-04-22T04:56:02.054Z,1014.67
2019-04-22T04:56:56.047Z,1014.65
2019-04-22T04:58:27.872Z,1014.69
2019-04-22T05:01:08.039Z,1014.69
2019-04-22T05:02:02.365Z,1014.70
2019-04-22T05:02:58.471Z,1014.74
2019-04-22T05:04:04.672Z,1014.78
2019-04-22T05:06:05.995Z,1014.75
2019-04-22T05:08:00.456Z,1014.82
2019-04-22T05:09:11.625Z,1014.85
2019-04-22T05:11:16.433Z,1014.79
2019-04-22T05:12:12.819Z,1014.76
2019-04-22T05:15:03.959Z,1014.78
2019-04-22T05:16:17.370Z,1014.77
2019-04-22T05:18:10.781Z,1014.72
2019-04-22T05:19:05.654Z,1014.77
2019-04-22T05:20:05.234Z,1014.72
2019-04-22T05:21:07.818Z,1014.73
2019-04-22T05:21:58.080Z,1014.66
2019-04-22T05:22:51.568Z,1014.68
2019-04-22T05:24:05.436Z,1014.70
2019-04-22T05:24:58.228Z,1014.71
2019-04-22T05:25:59.146Z,1014.73
2019-04-22T05:26:56.718Z,1014.76
2019-04-22T05:27:52.511Z,1014.77
2019-04-22T05:29:02.660Z,1014.79
2019-04-22T05:30:21.520Z,1014.77
2019-04-22T05:30:56.704Z,1014.80
2019-04-22T05:32:10.688Z,1014.76
2019-04-22T05:32:59.530Z,1014.78
2019-04-22T05:33:56.699Z,1014.79
2019-04-22T05:34:52.927Z,1014.74
2019-04-22T05:35:56.440Z,1014.78
2019-04-22T05:36:52.835Z,1014.80
2019-04-22T05:37:58.046Z,1014.79
2019-04-22T05:39:00.253Z,1014.76
2019-04-22T05:40:06.581Z,1014.77
2019-04-22T05:40:56.478Z,1014.82
2019-04-22T05:41:56.063Z,1014.78
2019-04-22T05:42:55.956Z,1014.76
2019-04-22T05:43:58.341Z,1014.74
2019-04-22T05:44:55.561Z,1014.75
2019-04-22T05:45:54.802Z,1014.81
2019-04-22T05:46:53.277Z,1014.87
2019-04-22T05:49:54.640Z,1014.84
2019-04-22T05:50:56.460Z,1014.87
2019-04-22T05:51:55.451Z,1014.89
2019-04-22T05:52:49.834Z,1014.93
2019-04-22T05:53:59.400Z,1014.94
2019-04-22T05:54:55.021Z,1014.91
2019-04-22T05:55:56.556Z,1014.93
2019-04-22T05:56:47.599Z,1014.98
2019-04-22T05:57:51.042Z,1014.97
2019-04-22T05:58:58.402Z,1014.98
2019-04-22T06:01:21.817Z,1014.90
2019-04-22T06:01:59.793Z,1014.97
2019-04-22T06:03:20.761Z,1014.99
2019-04-22T06:04:04.314Z,1015.01
2019-04-22T06:04:59.845Z,1015.02
2019-04-22T06:06:00.824Z,1015.03
2019-04-22T06:06:54.423Z,1015.05
2019-04-22T06:07:53.370Z,1015.01
2019-04-22T06:08:57.794Z,1015.08
2019-04-22T06:10:02.329Z,1015.09
2019-04-22T06:10:58.132Z,1015.04
2019-04-22T06:11:52.041Z,1015.06
2019-04-22T06:12:49.582Z,1015.07
2019-04-22T06:13:51.671Z,1015.05
2019-04-22T06:14:54.263Z,1015.04
2019-04-22T06:15:52.911Z,1015.05
2019-04-22T06:16:58.724Z,1015.10
2019-04-22T06:18:02.769Z,1015.05
2019-04-22T06:18:56.862Z,1015.03
2019-04-22T06:19:50.967Z,1015.05
2019-04-22T06:21:50.047Z,1015.02
2019-04-22T06:22:58.520Z,1015.08
2019-04-22T06:23:54.491Z,1014.96
2019-04-22T06:24:59.202Z,1014.98
2019-04-22T06:26:05.290Z,1014.98
2019-04-22T06:27:01.658Z,1015.01
2019-04-22T06:27:57.569Z,1015.00
2019-04-22T06:28:56.939Z,1014.96
2019-04-22T06:30:57.339Z,1015.00
2019-04-22T06:32:23.011Z,1015.02
2019-04-22T06:32:54.215Z,1015.03
2019-04-22T06:33:48.383Z,1015.03
2019-04-22T06:35:00.188Z,1014.98
2019-04-22T06:35:58.898Z,1014.99
2019-04-22T06:37:01.931Z,1015.02
2019-04-22T06:38:55.651Z,1014.95
2019-04-22T06:39:51.174Z,1014.99
2019-04-22T06:40:55.347Z,1014.97
2019-04-22T06:41:58.871Z,1015.01
2019-04-22T06:42:59.333Z,1014.95
2019-04-22T06:43:58.594Z,1014.96
2019-04-22T06:45:01.392Z,1014.92
2019-04-22T06:45:48.874Z,1014.96
2019-04-22T06:46:55.217Z,1015.05
2019-04-22T06:48:02.623Z,1015.02
2019-04-22T06:48:54.961Z,1015.03
2019-04-22T06:49:55.491Z,1014.99
2019-04-22T06:50:52.833Z,1015.00
2019-04-22T06:51:55.617Z,1015.04
2019-04-22T06:52:57.217Z,1015.03
2019-04-22T06:53:58.684Z,1015.03
2019-04-22T06:54:54.496Z,1015.09
2019-04-22T06:55:51.462Z,1015.05
2019-04-22T06:56:58.094Z,1015.16
2019-04-22T06:57:51.116Z,1015.13
2019-04-22T06:58:53.715Z,1015.03
2019-04-22T06:59:42.619Z,1015.09
2019-04-22T07:00:53.173Z,1015.05
2019-04-22T07:01:57.581Z,1015.09
2019-04-22T07:03:53.073Z,1015.07
2019-04-22T07:04:56.819Z,1015.14
2019-04-22T07:05:52.326Z,1015.09
2019-04-22T07:06:56.471Z,1015.13
2019-04-22T07:07:53.706Z,1015.12
2019-04-22T07:09:13.938Z,1015.16
2019-04-22T07:09:54.291Z,1015.16
2019-04-22T07:10:50.747Z,1015.16
2019-04-22T07:11:49.930Z,1015.12
2019-04-22T07:12:56.170Z,1015.20
2019-04-22T07:13:57.322Z,1015.24
2019-04-22T07:14:53.520Z,1015.23
2019-04-22T07:16:03.661Z,1015.30
2019-04-22T07:16:51.037Z,1015.25
2019-04-22T07:17:58.280Z,1015.19
2019-04-22T07:19:53.122Z,1015.23
2019-04-22T07:20:56.658Z,1015.25
2019-04-22T07:21:50.336Z,1015.29
2019-04-22T07:22:51.250Z,1015.20
2019-04-22T07:23:56.591Z,1015.18
2019-04-22T07:24:55.980Z,1015.22
2019-04-22T07:25:56.579Z,1015.15
2019-04-22T07:26:54.491Z,1015.16
2019-04-22T07:27:52.602Z,1015.19
2019-04-22T07:28:49.191Z,1015.19
2019-04-22T07:29:55.678Z,1015.21
2019-04-22T07:30:52.834Z,1015.24
2019-04-22T07:31:57.447Z,1015.26
2019-04-22T07:33:12.574Z,1015.26
2019-04-22T07:33:51.974Z,1015.22
2019-04-22T07:34:52.241Z,1015.28
2019-04-22T07:36:19.539Z,1015.25
2019-04-22T07:36:58.730Z,1015.27
2019-04-22T07:37:46.966Z,1015.20
2019-04-22T07:38:48.161Z,1015.15
2019-04-22T07:39:51.360Z,1015.22
2019-04-22T07:40:54.427Z,1015.27
2019-04-22T07:41:52.386Z,1015.22
2019-04-22T07:42:49.085Z,1015.22
2019-04-22T07:44:10.268Z,1015.24
2019-04-22T07:45:54.954Z,1015.25
2019-04-22T07:46:56.519Z,1015.22
2019-04-22T07:48:13.006Z,1015.27
2019-04-22T07:48:53.162Z,1015.25
2019-04-22T07:49:55.711Z,1015.27
2019-04-22T07:51:49.488Z,1015.32
2019-04-22T07:52:46.923Z,1015.32
2019-04-22T07:54:52.562Z,1015.33
2019-04-22T07:55:52.192Z,1015.33
2019-04-22T07:57:52.390Z,1015.27
2019-04-22T07:58:48.822Z,1015.23
2019-04-22T07:59:57.561Z,1015.28
2019-04-22T08:00:59.108Z,1015.27
2019-04-22T08:01:53.816Z,1015.25
2019-04-22T08:02:59.740Z,1015.34
2019-04-22T08:04:05.537Z,1015.27
2019-04-22T08:05:59.447Z,1015.31
2019-04-22T08:06:58.765Z,1015.26
2019-04-22T08:08:00.673Z,1015.23
2019-04-22T08:08:55.581Z,1015.25
2019-04-22T08:09:59.685Z,1015.27
2019-04-22T08:10:58.027Z,1015.23
2019-04-22T08:11:52.518Z,1015.25
2019-04-22T08:12:53.385Z,1015.24
2019-04-22T08:13:46.839Z,1015.28
2019-04-22T08:14:53.635Z,1015.22
2019-04-22T08:15:53.998Z,1015.25
2019-04-22T08:17:01.373Z,1015.30
2019-04-22T08:18:54.084Z,1015.30
2019-04-22T08:20:00.555Z,1015.29
2019-04-22T08:20:54.089Z,1015.25
2019-04-22T08:21:52.151Z,1015.25
2019-04-22T08:23:01.183Z,1015.34
2019-04-22T08:24:06.229Z,1015.30
2019-04-22T08:24:58.553Z,1015.35
2019-04-22T08:25:49.157Z,1015.30
2019-04-22T08:26:53.095Z,1015.32
2019-04-22T08:27:53.290Z,1015.32
2019-04-22T08:28:53.393Z,1015.31
2019-04-22T08:29:59.695Z,1015.35
2019-04-22T08:30:53.769Z,1015.33
2019-04-22T08:31:54.755Z,1015.28
2019-04-22T08:32:53.434Z,1015.30
2019-04-22T08:33:54.607Z,1015.33
2019-04-22T08:34:47.139Z,1015.36
2019-04-22T08:36:06.448Z,1015.36
2019-04-22T08:37:12.244Z,1015.35
2019-04-22T08:38:06.617Z,1015.28
2019-04-22T08:39:55.098Z,1015.33
2019-04-22T08:41:01.127Z,1015.36
2019-04-22T08:41:49.849Z,1015.36
2019-04-22T08:42:55.502Z,1015.36
2019-04-22T08:43:57.510Z,1015.35
2019-04-22T08:45:05.614Z,1015.34
2019-04-22T08:45:50.610Z,1015.30
2019-04-22T08:46:57.013Z,1015.40
2019-04-22T08:47:47.854Z,1015.40
2019-04-22T08:48:54.301Z,1015.41
2019-04-22T08:49:57.305Z,1015.42
2019-04-22T08:50:50.798Z,1015.35
2019-04-22T08:51:49.432Z,1015.33
2019-04-22T08:52:58.735Z,1015.39
2019-04-22T08:55:07.782Z,1015.35
2019-04-22T08:55:56.717Z,1015.33
2019-04-22T08:56:49.369Z,1015.37
2019-04-22T08:58:08.461Z,1015.37
2019-04-22T08:58:57.368Z,1015.47
2019-04-22T08:59:54.495Z,1015.38
2019-04-22T09:00:57.100Z,1015.42
2019-04-22T09:01:50.673Z,1015.34
2019-04-22T09:02:54.049Z,1015.42
2019-04-22T09:03:52.440Z,1015.44
2019-04-22T09:04:48.031Z,1015.46
2019-04-22T09:06:10.992Z,1015.39
2019-04-22T09:07:07.661Z,1015.36
2019-04-22T09:07:52.078Z,1015.30
2019-04-22T09:08:55.587Z,1015.35
2019-04-22T09:09:54.067Z,1015.32
2019-04-22T09:10:51.795Z,1015.31
2019-04-22T09:11:54.829Z,1015.37
2019-04-22T09:15:08.125Z,1015.38
2019-04-22T09:15:48.802Z,1015.40
2019-04-22T09:16:48.204Z,1015.35
2019-04-22T09:17:55.888Z,1015.32
2019-04-22T09:18:56.115Z,1015.28
2019-04-22T09:19:56.022Z,1015.39
2019-04-22T09:21:04.753Z,1015.35
2019-04-22T09:21:54.357Z,1015.34
2019-04-22T09:22:53.950Z,1015.37
2019-04-22T09:24:54.720Z,1015.33
2019-04-22T09:25:48.547Z,1015.38
2019-04-22T09:27:51.149Z,1015.33
2019-04-22T09:29:56.416Z,1015.40
2019-04-22T09:30:58.583Z,1015.40
2019-04-22T09:31:53.342Z,1015.35
2019-04-22T09:32:54.468Z,1015.28
2019-04-22T09:33:50.394Z,1015.27
2019-04-22T09:34:51.334Z,1015.29
2019-04-22T09:36:07.797Z,1015.32
2019-04-22T09:37:04.718Z,1015.21
2019-04-22T09:37:58.826Z,1015.23
2019-04-22T09:38:50.667Z,1015.22
2019-04-22T09:40:14.062Z,1015.26
2019-04-22T09:40:55.318Z,1015.26
2019-04-22T09:41:55.684Z,1015.29
2019-04-22T09:42:50.585Z,1015.18
2019-04-22T09:43:53.608Z,1015.18
2019-04-22T09:45:05.787Z,1015.25
2019-04-22T09:46:51.975Z,1015.18
2019-04-22T09:47:55.558Z,1015.17
2019-04-22T09:49:54.879Z,1015.24
2019-04-22T09:50:55.675Z,1015.11
2019-04-22T09:51:52.088Z,1015.18
2019-04-22T09:52:54.746Z,1015.21
2019-04-22T09:55:55.115Z,1015.17
2019-04-22T09:56:49.463Z,1015.19
2019-04-22T09:57:50.972Z,1015.19
2019-04-22T09:58:55.606Z,1015.17
2019-04-22T09:59:57.991Z,1015.26
2019-04-22T10:00:52.833Z,1015.13
2019-04-22T10:02:08.448Z,1015.15
2019-04-22T10:02:55.435Z,1015.13
2019-04-22T10:03:56.242Z,1015.17
2019-04-22T10:04:57.245Z,1015.08
2019-04-22T10:05:58.223Z,1015.09
2019-04-22T10:06:44.342Z,1015.11
2019-04-22T10:07:52.817Z,1015.16
2019-04-22T10:09:59.672Z,1015.08
2019-04-22T10:09:59.798Z,1015.13
2019-04-22T10:10:56.566Z,1015.09
2019-04-22T10:11:51.037Z,1015.03
2019-04-22T10:12:46.618Z,1014.98
2019-04-22T10:13:54.170Z,1014.96
2019-04-22T10:14:49.649Z,1014.90
2019-04-22T10:15:59.949Z,1014.93
2019-04-22T10:16:51.853Z,1014.93
2019-04-22T10:17:52.317Z,1014.95
2019-04-22T10:18:52.977Z,1014.88
2019-04-22T10:19:53.327Z,1014.91
2019-04-22T10:20:54.261Z,1014.83
2019-04-22T10:22:04.544Z,1014.83
2019-04-22T10:22:54.756Z,1014.80
2019-04-22T10:23:55.085Z,1014.78
2019-04-22T10:24:53.652Z,1014.73
2019-04-22T10:25:52.553Z,1014.69
2019-04-22T10:26:55.325Z,1014.76
2019-04-22T10:27:55.490Z,1014.72
2019-04-22T10:28:59.488Z,1014.72
2019-04-22T10:29:53.724Z,1014.71
2019-04-22T10:31:49.406Z,1014.73
2019-04-22T10:32:47.568Z,1014.68
2019-04-22T10:34:34.681Z,1014.59
2019-04-22T10:35:28.375Z,1014.61
2019-04-22T10:36:25.597Z,1014.63
2019-04-22T10:37:25.656Z,1014.65
2019-04-22T10:38:26.293Z,1014.59
2019-04-22T10:39:37.883Z,1014.60
2019-04-22T10:40:25.821Z,1014.60
2019-04-22T10:41:24.669Z,1014.57
2019-04-22T10:42:25.064Z,1014.58
2019-04-22T10:43:25.328Z,1014.49
2019-04-22T10:44:24.639Z,1014.59
2019-04-22T10:45:25.976Z,1014.61
2019-04-22T10:46:26.273Z,1014.63
2019-04-22T10:47:25.764Z,1014.65
2019-04-22T10:48:26.108Z,1014.63
2019-04-22T10:49:24.630Z,1014.58
2019-04-22T10:50:24.707Z,1014.60
2019-04-22T10:51:24.577Z,1014.56
2019-04-22T10:52:25.643Z,1014.53
2019-04-22T10:53:25.736Z,1014.53
2019-04-22T10:54:25.342Z,1014.44
2019-04-22T10:55:25.422Z,1014.48
2019-04-22T10:56:25.306Z,1014.53
2019-04-22T10:57:25.611Z,1014.53
2019-04-22T10:58:24.827Z,1014.51
2019-04-22T10:59:24.762Z,1014.54
2019-04-22T11:00:24.486Z,1014.54
2019-04-22T11:01:25.628Z,1014.56
2019-04-22T11:02:25.646Z,1014.52
2019-04-22T11:03:24.690Z,1014.53
2019-04-22T11:04:25.863Z,1014.48
2019-04-22T11:05:24.437Z,1014.56
2019-04-22T11:06:25.366Z,1014.43
2019-04-22T11:07:30.844Z,1014.42
2019-04-22T11:08:37.847Z,1014.40
2019-04-22T11:09:26.731Z,1014.43
2019-04-22T11:10:41.310Z,1014.39
2019-04-22T11:11:35.821Z,1014.42
2019-04-22T11:12:28.859Z,1014.47
2019-04-22T11:13:26.124Z,1014.54
2019-04-22T11:14:24.351Z,1014.39
2019-04-22T11:15:24.512Z,1014.34
2019-04-22T11:16:25.672Z,1014.41
2019-04-22T11:17:25.945Z,1014.48
2019-04-22T11:18:25.360Z,1014.42
2019-04-22T11:19:25.559Z,1014.38
2019-04-22T11:20:24.295Z,1014.42
2019-04-22T11:21:25.395Z,1014.39
2019-04-22T11:22:28.517Z,1014.37
2019-04-22T11:23:26.905Z,1014.39
2019-04-22T11:24:24.274Z,1014.36
2019-04-22T11:25:25.514Z,1014.27
2019-04-22T11:26:24.235Z,1014.18
2019-04-22T11:27:25.335Z,1014.24
2019-04-22T11:28:25.525Z,1014.21
2019-04-22T11:29:25.574Z,1014.22
2019-04-22T11:30:27.622Z,1014.31
2019-04-22T11:31:24.240Z,1014.28
2019-04-22T11:32:24.418Z,1014.33
2019-04-22T11:33:24.666Z,1014.29
2019-04-22T11:34:24.909Z,1014.25
2019-04-22T11:35:24.149Z,1014.27
2019-04-22T11:36:26.936Z,1014.27
2019-04-22T11:37:24.902Z,1014.21
2019-04-22T11:38:24.686Z,1014.25
2019-04-22T11:39:24.108Z,1014.18
2019-04-22T11:40:32.050Z,1014.14
2019-04-22T11:41:25.517Z,1014.11
2019-04-22T11:42:24.084Z,1014.15
2019-04-22T11:43:24.252Z,1014.19
2019-04-22T11:44:25.395Z,1014.12
2019-04-22T11:45:24.051Z,1014.09
2019-04-22T11:46:25.277Z,1014.08
2019-04-22T11:47:25.447Z,1014.14
2019-04-22T11:48:24.024Z,1013.95
2019-04-22T11:49:24.012Z,1014.12
2019-04-22T11:50:24.256Z,1014.14
2019-04-22T11:51:24.373Z,1014.12
2019-04-22T11:52:24.679Z,1014.13
2019-04-22T11:53:24.860Z,1014.04
2019-04-22T11:54:25.081Z,1013.99
2019-04-22T11:55:24.572Z,1013.96
2019-04-22T11:56:25.156Z,1013.99
2019-04-22T11:57:25.226Z,1013.98
2019-04-22T11:58:24.651Z,1013.95
2019-04-22T11:59:24.903Z,1013.86
2019-04-22T12:00:25.021Z,1013.76
2019-04-22T12:01:24.651Z,1013.77
2019-04-22T12:02:25.304Z,1013.74
2019-04-22T12:03:25.361Z,1013.81
2019-04-22T12:04:23.864Z,1013.70
2019-04-22T12:05:23.852Z,1013.64
2019-04-22T12:06:24.080Z,1013.68
2019-04-22T12:07:23.834Z,1013.59
2019-04-22T12:08:25.100Z,1013.53
2019-04-22T12:09:23.896Z,1013.52
2019-04-22T12:10:33.007Z,1013.57
2019-04-22T12:11:26.145Z,1013.44
2019-04-22T12:12:23.783Z,1013.44
2019-04-22T12:13:24.182Z,1013.38
2019-04-22T12:14:24.029Z,1013.45
2019-04-22T12:15:24.656Z,1013.47
2019-04-22T12:16:23.742Z,1013.41
2019-04-22T12:17:24.259Z,1013.38
2019-04-22T12:18:24.949Z,1013.34
2019-04-22T12:19:25.050Z,1013.29
2019-04-22T12:20:25.388Z,1013.37
2019-04-22T12:21:23.692Z,1013.24
2019-04-22T12:22:25.113Z,1013.22
2019-04-22T12:23:25.070Z,1013.31
2019-04-22T12:24:25.089Z,1013.26
2019-04-22T12:25:34.823Z,1013.34
2019-04-22T12:26:25.488Z,1013.33
2019-04-22T12:27:24.803Z,1013.34
2019-04-22T12:28:23.621Z,1013.30
2019-04-22T12:29:24.770Z,1013.41
2019-04-22T12:30:23.738Z,1013.34
2019-04-22T12:31:23.873Z,1013.25
2019-04-22T12:32:23.578Z,1013.29
2019-04-22T12:33:23.638Z,1013.27
2019-04-22T12:34:23.814Z,1013.25
2019-04-22T12:35:24.323Z,1013.36
2019-04-22T12:36:24.524Z,1013.26
2019-04-22T12:37:31.568Z,1013.31
2019-04-22T12:38:24.518Z,1013.26
2019-04-22T12:39:23.511Z,1013.32
2019-04-22T12:40:33.808Z,1013.19
2019-04-22T12:41:25.845Z,1013.20
2019-04-22T12:42:23.664Z,1013.16
2019-04-22T12:43:25.703Z,1013.04
2019-04-22T12:44:24.451Z,1013.08
2019-04-22T12:45:24.594Z,1013.13
2019-04-22T12:46:24.053Z,1013.10
2019-04-22T12:47:24.348Z,1013.20
2019-04-22T12:48:23.417Z,1013.14
2019-04-22T12:49:23.404Z,1013.07
2019-04-22T12:50:28.330Z,1013.08
2019-04-22T12:51:24.998Z,1013.02
2019-04-22T12:52:32.363Z,1013.00
2019-04-22T12:53:27.664Z,1013.00
2019-04-22T12:54:24.614Z,1013.05
2019-04-22T12:55:23.801Z,1013.03
2019-04-22T12:56:23.847Z,1013.00
2019-04-22T12:57:24.765Z,1012.88
2019-04-22T12:58:23.563Z,1012.98
2019-04-22T12:59:23.730Z,1012.88
2019-04-22T13:00:24.559Z,1012.88
2019-04-22T13:01:24.509Z,1012.93
2019-04-22T13:02:23.281Z,1012.91
2019-04-22T13:03:24.527Z,1012.80
2019-04-22T13:04:25.137Z,1012.91
2019-04-22T13:05:23.242Z,1012.78
2019-04-22T13:06:23.648Z,1012.75
2019-04-22T13:07:24.108Z,1012.70
2019-04-22T13:08:23.566Z,1012.67
2019-04-22T13:09:23.279Z,1012.71
2019-04-22T13:10:24.152Z,1012.65
2019-04-22T13:11:29.959Z,1012.63
2019-04-22T13:12:24.836Z,1012.69
2019-04-22T13:13:23.150Z,1012.68
2019-04-22T13:14:23.308Z,1012.58
2019-04-22T13:15:23.865Z,1012.62
2019-04-22T13:16:23.119Z,1012.51
2019-04-22T13:17:23.209Z,1012.58
2019-04-22T13:18:31.678Z,1012.58
2019-04-22T13:19:26.455Z,1012.53
2019-04-22T13:20:24.307Z,1012.58
2019-04-22T13:21:24.338Z,1012.49
2019-04-22T13:22:23.203Z,1012.54
2019-04-22T13:23:23.047Z,1012.58
2019-04-22T13:24:23.777Z,1012.57
2019-04-22T13:25:26.089Z,1012.52
2019-04-22T13:26:23.236Z,1012.49
2019-04-22T13:27:23.004Z,1012.35
2019-04-22T13:28:23.151Z,1012.42